createdAt,value
2017-10-07T00:01:52.486Z,21.50
2017-10-07T00:04:18.548Z,18.93
2017-10-07T00:06:44.608Z,13.50
2017-10-07T00:09:10.647Z,22.63
2017-10-07T00:11:36.729Z,17.20
2017-10-07T00:14:02.781Z,25.30
2017-10-07T00:16:28.838Z,17.43
2017-10-07T00:18:54.877Z,14.00
2017-10-07T00:21:20.930Z,15.20
2017-10-07T00:23:47.739Z,18.47
2017-10-07T00:26:13.822Z,12.50
2017-10-07T00:28:39.877Z,13.77
2017-10-07T00:31:06.665Z,22.93
2017-10-07T00:33:32.767Z,12.57
2017-10-07T00:35:58.830Z,20.40
2017-10-07T00:38:24.946Z,16.20
2017-10-07T00:40:51.041Z,19.83
2017-10-07T00:43:17.868Z,15.33
2017-10-07T00:45:44.657Z,18.70
2017-10-07T00:48:10.725Z,22.03
2017-10-07T00:50:36.780Z,12.80
2017-10-07T00:53:02.844Z,14.13
2017-10-07T00:55:28.890Z,26.97
2017-10-07T00:57:54.953Z,15.37
2017-10-07T01:00:21.021Z,19.27
2017-10-07T01:02:47.213Z,16.23
2017-10-07T01:05:13.273Z,15.30
2017-10-07T01:07:40.073Z,15.13
2017-10-07T01:10:06.150Z,20.67
2017-10-07T01:12:32.197Z,8.70
2017-10-07T01:14:58.268Z,14.57
2017-10-07T01:17:24.309Z,15.73
2017-10-07T01:19:50.377Z,17.53
2017-10-07T01:22:16.417Z,12.13
2017-10-07T01:24:42.473Z,21.43
2017-10-07T01:27:08.530Z,6.23
2017-10-07T01:29:34.565Z,14.43
2017-10-07T01:32:00.596Z,3.03
2017-10-07T01:34:26.654Z,9.60
2017-10-07T01:36:53.448Z,12.83
2017-10-07T01:39:19.502Z,10.43
2017-10-07T01:41:45.553Z,15.90
2017-10-07T01:44:12.345Z,5.80
2017-10-07T01:46:38.449Z,7.00
2017-10-07T01:49:04.505Z,10.33
2017-10-07T01:51:30.586Z,8.10
2017-10-07T01:53:57.368Z,8.13
2017-10-07T01:56:23.426Z,6.33
2017-10-07T01:58:50.208Z,11.83
2017-10-07T02:01:16.264Z,13.67
2017-10-07T02:03:42.285Z,17.50
2017-10-07T02:06:09.089Z,15.00
2017-10-07T02:08:35.911Z,17.30
2017-10-07T02:11:01.975Z,16.40
2017-10-07T02:13:28.003Z,18.07
2017-10-07T02:15:54.045Z,9.33
2017-10-07T02:18:20.086Z,6.90
2017-10-07T02:20:46.852Z,7.23
2017-10-07T02:23:13.657Z,13.37
2017-10-07T02:25:39.733Z,23.57
2017-10-07T02:28:05.773Z,14.40
2017-10-07T02:30:31.823Z,12.10
2017-10-07T02:32:57.862Z,12.03
2017-10-07T02:35:24.649Z,8.83
2017-10-07T02:37:50.680Z,16.10
2017-10-07T02:40:16.709Z,9.70
2017-10-07T02:42:43.489Z,8.80
2017-10-07T02:45:10.274Z,16.43
2017-10-07T02:47:36.325Z,4.33
2017-10-07T02:50:02.362Z,11.90
2017-10-07T02:52:28.420Z,12.40
2017-10-07T02:54:55.205Z,10.10
2017-10-07T02:57:22.002Z,12.87
2017-10-07T02:59:48.045Z,8.67
2017-10-07T03:02:14.833Z,15.20
2017-10-07T03:04:40.904Z,20.57
2017-10-07T03:07:06.953Z,8.20
2017-10-07T03:09:33.013Z,9.70
2017-10-07T03:11:59.065Z,7.60
2017-10-07T03:14:25.113Z,7.40
2017-10-07T03:16:51.163Z,8.03
2017-10-07T03:19:17.242Z,15.00
2017-10-07T03:21:44.031Z,9.43
2017-10-07T03:24:10.109Z,13.80
2017-10-07T03:26:36.149Z,13.67
2017-10-07T03:29:02.306Z,5.03
2017-10-07T03:31:35.374Z,18.87
2017-10-07T03:34:01.423Z,10.03
2017-10-07T03:36:27.461Z,10.17
2017-10-07T03:38:53.497Z,7.80
2017-10-07T03:41:19.562Z,14.53
2017-10-07T03:43:45.646Z,10.30
2017-10-07T03:46:11.704Z,8.07
2017-10-07T03:48:37.730Z,6.50
2017-10-07T03:51:03.817Z,4.67
2017-10-07T03:53:29.868Z,15.73
2017-10-07T03:55:55.917Z,8.50
2017-10-07T03:58:21.973Z,6.70
2017-10-07T04:00:48.038Z,4.77
2017-10-07T04:03:14.122Z,11.27
2017-10-07T04:05:40.210Z,10.20
2017-10-07T04:08:06.245Z,6.33
2017-10-07T04:10:32.313Z,12.40
2017-10-07T04:12:59.105Z,11.70
2017-10-07T04:15:25.145Z,14.90
2017-10-07T04:17:51.942Z,20.10
2017-10-07T04:20:17.967Z,6.33
2017-10-07T04:22:43.997Z,11.90
2017-10-07T04:25:10.025Z,17.23
2017-10-07T04:27:36.085Z,25.77
2017-10-07T04:30:02.125Z,7.27
2017-10-07T04:32:28.941Z,10.60
2017-10-07T04:34:55.725Z,12.67
2017-10-07T04:37:21.817Z,13.23
2017-10-07T04:39:47.885Z,25.73
2017-10-07T04:42:14.677Z,13.07
2017-10-07T04:44:40.740Z,11.63
2017-10-07T04:47:06.813Z,13.63
2017-10-07T04:49:32.868Z,10.53
2017-10-07T04:51:58.955Z,6.93
2017-10-07T04:54:25.028Z,13.40
2017-10-07T04:56:51.106Z,10.93
2017-10-07T04:59:17.163Z,10.17
2017-10-07T05:01:43.221Z,10.43
2017-10-07T05:04:09.285Z,4.80
2017-10-07T05:06:36.089Z,6.97
2017-10-07T05:09:02.153Z,10.00
2017-10-07T05:11:28.218Z,13.67
2017-10-07T05:13:54.305Z,13.80
2017-10-07T05:16:20.393Z,14.40
2017-10-07T05:18:46.481Z,8.87
2017-10-07T05:21:12.560Z,14.17
2017-10-07T05:23:38.633Z,10.63
2017-10-07T05:26:04.701Z,11.63
2017-10-07T05:28:30.770Z,7.00
2017-10-07T05:30:56.810Z,7.50
2017-10-07T05:33:23.621Z,15.67
2017-10-07T05:35:49.654Z,11.13
2017-10-07T05:38:15.791Z,12.10
2017-10-07T05:40:41.877Z,6.97
2017-10-07T05:43:08.669Z,5.33
2017-10-07T05:45:34.713Z,13.07
2017-10-07T05:48:00.763Z,14.80
2017-10-07T05:50:26.810Z,7.13
2017-10-07T05:52:52.845Z,18.80
2017-10-07T05:55:19.637Z,18.50
2017-10-07T05:57:45.714Z,5.50
2017-10-07T06:00:11.769Z,17.13
2017-10-07T06:02:37.797Z,14.57
2017-10-07T06:05:04.591Z,6.50
2017-10-07T06:07:30.633Z,8.43
2017-10-07T06:09:57.417Z,16.67
2017-10-07T06:12:23.453Z,13.33
2017-10-07T06:14:50.277Z,16.07
2017-10-07T06:17:17.276Z,14.40
2017-10-07T06:19:43.324Z,9.27
2017-10-07T06:22:10.117Z,12.43
2017-10-07T06:24:36.179Z,12.93
2017-10-07T06:27:02.290Z,34.63
2017-10-07T06:29:28.345Z,12.10
2017-10-07T06:31:54.398Z,15.37
2017-10-07T06:34:20.461Z,26.17
2017-10-07T06:36:46.529Z,20.83
2017-10-07T06:39:12.596Z,16.57
2017-10-07T06:41:38.648Z,15.83
2017-10-07T06:44:04.730Z,9.20
2017-10-07T06:46:31.524Z,7.33
2017-10-07T06:48:57.564Z,10.20
2017-10-07T06:51:24.378Z,14.17
2017-10-07T06:53:51.176Z,8.10
2017-10-07T06:56:17.985Z,10.17
2017-10-07T06:58:44.076Z,13.43
2017-10-07T07:01:10.141Z,24.60
2017-10-07T07:03:36.202Z,10.63
2017-10-07T07:06:02.286Z,5.93
2017-10-07T07:08:29.097Z,12.57
2017-10-07T07:10:55.161Z,12.20
2017-10-07T07:13:21.829Z,9.23
2017-10-07T07:15:48.392Z,9.77
2017-10-07T07:18:14.453Z,8.53
2017-10-07T07:20:40.545Z,14.17
2017-10-07T07:23:07.356Z,15.53
2017-10-07T07:25:33.402Z,12.40
2017-10-07T07:27:59.467Z,9.73
2017-10-07T07:30:25.524Z,14.00
2017-10-07T07:32:51.589Z,19.33
2017-10-07T07:35:17.657Z,8.50
2017-10-07T07:37:44.450Z,23.40
2017-10-07T07:40:10.509Z,23.17
2017-10-07T07:42:36.570Z,13.70
2017-10-07T07:45:02.640Z,15.33
2017-10-07T07:47:28.696Z,12.20
2017-10-07T07:49:54.758Z,15.97
2017-10-07T07:52:20.885Z,14.80
2017-10-07T07:54:46.938Z,18.77
2017-10-07T07:57:13.009Z,16.27
2017-10-07T07:59:39.056Z,10.60
2017-10-07T08:02:05.107Z,12.80
2017-10-07T08:04:31.165Z,20.43
2017-10-07T08:06:57.257Z,14.73
2017-10-07T08:09:24.045Z,15.83
2017-10-07T08:11:51.114Z,11.27
2017-10-07T08:14:17.773Z,19.57
2017-10-07T08:16:44.570Z,21.70
2017-10-07T08:19:10.652Z,9.37
2017-10-07T08:21:36.696Z,18.43
2017-10-07T08:24:02.757Z,12.70
2017-10-07T08:26:28.821Z,17.70
2017-10-07T08:28:54.901Z,21.33
2017-10-07T08:31:20.997Z,11.23
2017-10-07T08:33:47.064Z,10.37
2017-10-07T08:36:13.875Z,15.10
2017-10-07T08:38:40.801Z,17.53
2017-10-07T08:41:06.860Z,19.53
2017-10-07T08:43:32.920Z,17.00
2017-10-07T08:45:58.981Z,17.97
2017-10-07T08:48:25.033Z,19.93
2017-10-07T08:50:51.093Z,22.70
2017-10-07T08:53:17.161Z,12.30
2017-10-07T08:55:43.221Z,18.00
2017-10-07T08:58:09.269Z,19.87
2017-10-07T09:00:36.061Z,18.33
2017-10-07T09:03:02.114Z,18.03
2017-10-07T09:05:28.298Z,21.30
2017-10-07T09:07:54.353Z,19.17
2017-10-07T09:10:21.133Z,29.07
2017-10-07T09:12:47.930Z,20.63
2017-10-07T09:15:14.000Z,20.80
2017-10-07T09:17:40.111Z,20.47
2017-10-07T09:20:06.182Z,21.27
2017-10-07T09:22:32.225Z,27.87
2017-10-07T09:24:58.273Z,22.90
2017-10-07T09:27:24.349Z,32.47
2017-10-07T09:29:50.406Z,27.80
2017-10-07T09:32:16.474Z,10.40
2017-10-07T09:34:43.361Z,26.60
2017-10-07T09:37:09.417Z,25.13
2017-10-07T09:39:36.235Z,22.67
2017-10-07T09:42:02.308Z,38.47
2017-10-07T09:44:28.356Z,20.30
2017-10-07T09:46:54.413Z,29.37
2017-10-07T09:49:20.473Z,26.03
2017-10-07T09:51:46.518Z,27.73
2017-10-07T09:54:12.580Z,27.63
2017-10-07T09:56:38.629Z,28.03
2017-10-07T09:59:04.693Z,23.33
2017-10-07T10:01:30.745Z,28.33
2017-10-07T10:03:56.798Z,41.50
2017-10-07T10:06:22.882Z,19.80
2017-10-07T10:08:48.936Z,31.53
2017-10-07T10:11:14.994Z,30.30
2017-10-07T10:13:41.050Z,27.97
2017-10-07T10:16:07.104Z,35.53
2017-10-07T10:18:33.170Z,37.60
2017-10-07T10:20:59.221Z,27.13
2017-10-07T10:23:25.285Z,30.27
2017-10-07T10:25:51.337Z,37.70
2017-10-07T10:28:18.143Z,32.03
2017-10-07T10:30:44.941Z,22.90
2017-10-07T10:33:12.477Z,28.90
2017-10-07T10:35:38.542Z,15.00
2017-10-07T10:38:04.600Z,31.63
2017-10-07T10:40:30.660Z,22.73
2017-10-07T10:42:56.722Z,21.50
2017-10-07T10:45:22.771Z,31.13
2017-10-07T10:47:49.577Z,31.40
2017-10-07T10:50:16.385Z,29.33
2017-10-07T10:52:42.440Z,19.77
2017-10-07T10:55:08.497Z,30.73
2017-10-07T10:57:34.573Z,38.00
2017-10-07T11:00:00.683Z,25.90
2017-10-07T11:02:26.737Z,36.07
2017-10-07T11:04:52.799Z,31.03
2017-10-07T11:07:18.853Z,34.40
2017-10-07T11:09:45.765Z,41.50
2017-10-07T11:12:11.826Z,25.87
2017-10-07T11:14:37.904Z,23.27
2017-10-07T11:17:03.977Z,39.63
2017-10-07T11:19:30.029Z,36.47
2017-10-07T11:21:56.081Z,38.17
2017-10-07T11:24:22.150Z,28.60
2017-10-07T11:26:48.222Z,29.67
2017-10-07T11:29:14.292Z,24.13
2017-10-07T11:31:41.189Z,28.33
2017-10-07T11:34:07.233Z,26.70
2017-10-07T11:36:34.019Z,18.57
2017-10-07T11:39:00.098Z,28.93
2017-10-07T11:41:26.169Z,16.73
2017-10-07T11:43:52.952Z,21.50
2017-10-07T11:46:19.015Z,18.87
2017-10-07T11:48:45.805Z,22.93
2017-10-07T11:51:11.884Z,29.33
2017-10-07T11:53:37.934Z,21.60
2017-10-07T11:56:03.993Z,16.13
2017-10-07T11:58:30.040Z,27.80
2017-10-07T12:00:56.166Z,18.50
2017-10-07T12:03:22.213Z,16.60
2017-10-07T12:05:48.269Z,14.40
2017-10-07T12:08:14.322Z,20.53
2017-10-07T12:10:40.365Z,18.90
2017-10-07T12:13:06.415Z,16.10
2017-10-07T12:15:32.452Z,15.07
2017-10-07T12:17:59.229Z,10.80
2017-10-07T12:20:25.277Z,11.30
2017-10-07T12:22:52.114Z,11.27
2017-10-07T12:25:18.196Z,13.63
2017-10-07T12:27:44.252Z,13.60
2017-10-07T12:30:10.292Z,14.70
2017-10-07T12:32:36.400Z,15.80
2017-10-07T12:35:02.422Z,10.20
2017-10-07T12:37:28.467Z,14.73
2017-10-07T12:39:55.249Z,8.27
2017-10-07T12:42:21.294Z,10.20
2017-10-07T12:44:48.091Z,13.23
2017-10-07T12:47:14.135Z,12.53
2017-10-07T12:49:40.181Z,4.77
2017-10-07T12:52:06.272Z,10.33
2017-10-07T12:54:39.328Z,8.47
2017-10-07T12:57:05.401Z,8.03
2017-10-07T12:59:32.205Z,10.90
2017-10-07T13:01:58.245Z,5.80
2017-10-07T13:04:24.290Z,9.77
2017-10-07T13:06:50.325Z,9.37
2017-10-07T13:09:16.365Z,11.53
2017-10-07T13:11:43.160Z,10.43
2017-10-07T13:14:09.205Z,10.77
2017-10-07T13:16:35.265Z,13.63
2017-10-07T13:19:01.315Z,14.20
2017-10-07T13:21:27.361Z,11.50
2017-10-07T13:23:54.164Z,13.40
2017-10-07T13:26:21.008Z,10.83
2017-10-07T13:28:47.790Z,7.90
2017-10-07T13:31:13.833Z,12.00
2017-10-07T13:33:40.620Z,14.30
2017-10-07T13:36:06.693Z,13.77
2017-10-07T13:38:32.745Z,12.47
2017-10-07T13:40:58.804Z,17.00
2017-10-07T13:43:25.582Z,15.97
2017-10-07T13:45:51.634Z,14.17
2017-10-07T13:48:17.692Z,21.80
2017-10-07T13:50:43.729Z,20.40
2017-10-07T13:53:09.758Z,26.03
2017-10-07T13:55:36.618Z,18.63
2017-10-07T13:58:02.669Z,24.67
2017-10-07T14:00:28.733Z,23.13
2017-10-07T14:02:54.773Z,21.77
2017-10-07T14:05:20.834Z,17.87
2017-10-07T14:07:46.874Z,22.00
2017-10-07T14:10:12.944Z,25.07
2017-10-07T14:12:39.056Z,23.17
2017-10-07T14:15:05.085Z,24.77
2017-10-07T14:17:31.124Z,28.00
2017-10-07T14:19:57.901Z,30.73
2017-10-07T14:22:23.942Z,35.63
2017-10-07T14:24:50.004Z,29.20
2017-10-07T14:27:16.796Z,30.50
2017-10-07T14:29:42.841Z,21.13
2017-10-07T14:32:08.897Z,23.00
2017-10-07T14:34:34.940Z,26.17
2017-10-07T14:37:00.987Z,21.10
2017-10-07T14:39:27.041Z,29.27
2017-10-07T14:41:53.077Z,23.73
2017-10-07T14:44:19.857Z,28.90
2017-10-07T14:46:45.925Z,34.40
2017-10-07T14:49:12.715Z,35.47
2017-10-07T14:51:38.769Z,29.27
2017-10-07T14:54:05.597Z,32.13
2017-10-07T14:56:31.632Z,28.20
2017-10-07T14:58:57.713Z,26.00
2017-10-07T15:01:24.519Z,22.83
2017-10-07T15:03:50.601Z,44.27
2017-10-07T15:06:20.025Z,41.50
2017-10-07T15:08:48.505Z,42.97
2017-10-07T15:11:16.341Z,48.83
2017-10-07T15:13:44.163Z,46.57
2017-10-07T15:16:11.973Z,48.73
2017-10-07T15:18:39.816Z,45.00
2017-10-07T15:21:07.636Z,39.57
2017-10-07T15:23:35.474Z,34.03
2017-10-07T15:26:03.303Z,40.10
2017-10-07T15:28:31.152Z,26.50
2017-10-07T15:30:58.977Z,35.43
2017-10-07T15:33:26.781Z,26.13
2017-10-07T15:35:54.597Z,19.70
2017-10-07T15:38:22.409Z,26.43
2017-10-07T15:40:50.240Z,21.40
2017-10-07T15:43:18.064Z,23.43
2017-10-07T15:45:45.884Z,28.57
2017-10-07T15:48:13.690Z,16.20
2017-10-07T15:50:41.500Z,25.80
2017-10-07T15:53:09.311Z,37.43
2017-10-07T15:55:37.116Z,26.60
2017-10-07T15:58:04.954Z,19.70
2017-10-07T16:00:32.769Z,20.83
2017-10-07T16:03:00.576Z,16.23
2017-10-07T16:05:28.384Z,16.70
2017-10-07T16:07:56.220Z,21.20
2017-10-07T16:10:24.038Z,13.43
2017-10-07T16:12:51.872Z,20.23
2017-10-07T16:15:19.688Z,21.57
2017-10-07T16:17:47.512Z,19.00
2017-10-07T16:20:15.341Z,14.57
2017-10-07T16:22:43.178Z,16.87
2017-10-07T16:25:10.976Z,20.37
2017-10-07T16:27:38.825Z,16.23
2017-10-07T16:30:06.640Z,20.40
2017-10-07T16:32:34.576Z,21.43
2017-10-07T16:35:02.504Z,14.50
2017-10-07T16:37:30.347Z,15.67
2017-10-07T16:39:58.177Z,19.97
2017-10-07T16:42:25.988Z,23.07
2017-10-07T16:44:53.806Z,18.10
2017-10-07T16:47:21.628Z,19.80
2017-10-07T16:49:49.443Z,14.77
2017-10-07T16:52:17.252Z,16.60
2017-10-07T16:54:45.075Z,19.73
2017-10-07T16:57:12.882Z,20.90
2017-10-07T16:59:40.692Z,20.30
2017-10-07T17:02:08.520Z,19.83
2017-10-07T17:04:36.372Z,19.27
2017-10-07T17:07:04.201Z,20.93
2017-10-07T17:09:32.036Z,20.57
2017-10-07T17:11:59.873Z,27.23
2017-10-07T17:14:27.708Z,24.67
2017-10-07T17:16:55.533Z,21.10
2017-10-07T17:19:23.361Z,19.13
2017-10-07T17:21:51.172Z,26.43
2017-10-07T17:24:18.981Z,27.80
2017-10-07T17:26:46.796Z,25.03
2017-10-07T17:29:14.629Z,26.60
2017-10-07T17:31:42.433Z,18.40
2017-10-07T17:34:10.244Z,34.37
2017-10-07T17:36:38.052Z,26.73
2017-10-07T17:39:05.852Z,36.60
2017-10-07T17:41:33.661Z,24.70
2017-10-07T17:44:01.517Z,27.97
2017-10-07T17:46:29.349Z,29.40
2017-10-07T17:48:57.225Z,31.17
2017-10-07T17:51:25.037Z,27.10
2017-10-07T17:53:52.849Z,25.20
2017-10-07T17:56:20.664Z,27.37
2017-10-07T17:58:48.485Z,29.77
2017-10-07T18:01:16.297Z,28.03
2017-10-07T18:03:44.104Z,21.83
2017-10-07T18:06:11.917Z,15.83
2017-10-07T18:08:39.716Z,25.23
2017-10-07T18:11:07.540Z,27.30
2017-10-07T18:13:35.359Z,26.33
2017-10-07T18:16:03.276Z,23.43
2017-10-07T18:18:31.094Z,25.67
2017-10-07T18:20:58.901Z,25.27
2017-10-07T18:23:26.729Z,27.00
2017-10-07T18:25:54.555Z,24.20
2017-10-07T18:28:22.401Z,21.70
2017-10-07T18:30:50.249Z,27.10
2017-10-07T18:33:18.060Z,23.20
2017-10-07T18:35:45.874Z,21.80
2017-10-07T18:38:13.696Z,24.03
2017-10-07T18:40:41.509Z,28.50
2017-10-07T18:43:09.339Z,23.03
2017-10-07T18:45:37.153Z,20.13
2017-10-07T18:48:04.996Z,23.70
2017-10-07T18:50:32.830Z,18.53
2017-10-07T18:53:00.653Z,16.20
2017-10-07T18:55:28.456Z,12.30
2017-10-07T18:57:56.268Z,14.63
2017-10-07T19:00:24.092Z,18.50
2017-10-07T19:02:51.927Z,19.97
2017-10-07T19:05:19.765Z,24.33
2017-10-07T19:07:47.599Z,18.00
2017-10-07T19:10:15.428Z,19.23
2017-10-07T19:12:43.248Z,15.47
2017-10-07T19:15:11.053Z,13.93
2017-10-07T19:17:38.892Z,12.73
2017-10-07T19:20:06.724Z,11.57
2017-10-07T19:22:34.545Z,11.70
2017-10-07T19:25:02.361Z,12.67
2017-10-07T19:27:30.177Z,12.60
2017-10-07T19:29:57.988Z,11.63
2017-10-07T19:32:25.865Z,7.20
2017-10-07T19:34:53.697Z,10.27
2017-10-07T19:37:21.496Z,7.80
2017-10-07T19:39:49.325Z,13.50
2017-10-07T19:42:17.229Z,10.60
2017-10-07T19:44:45.060Z,15.53
2017-10-07T19:47:12.874Z,11.40
2017-10-07T19:49:40.697Z,9.27
2017-10-07T19:52:08.500Z,7.57
2017-10-07T19:54:36.316Z,12.03
2017-10-07T19:57:04.134Z,5.33
2017-10-07T19:59:31.952Z,7.93
2017-10-07T20:01:59.780Z,7.67
2017-10-07T20:04:27.591Z,10.43
2017-10-07T20:06:55.389Z,5.80
2017-10-07T20:09:23.213Z,8.80
2017-10-07T20:11:51.029Z,6.53
2017-10-07T20:14:18.831Z,9.03
2017-10-07T20:16:46.657Z,10.60
2017-10-07T20:19:14.464Z,2.77
2017-10-07T20:21:42.276Z,12.90
2017-10-07T20:24:10.084Z,6.37
2017-10-07T20:26:37.906Z,6.17
2017-10-07T20:29:05.705Z,12.27
2017-10-07T20:31:33.522Z,6.53
2017-10-07T20:34:01.337Z,7.97
2017-10-07T20:36:29.945Z,8.63
2017-10-07T20:38:57.768Z,8.53
2017-10-07T20:41:25.582Z,7.63
2017-10-07T20:43:53.394Z,8.83
2017-10-07T20:46:21.221Z,10.13
2017-10-07T20:48:49.026Z,8.33
2017-10-07T20:51:16.844Z,11.63
2017-10-07T20:53:44.657Z,11.10
2017-10-07T20:56:12.460Z,13.67
2017-10-07T20:58:40.271Z,14.50
2017-10-07T21:01:08.077Z,16.03
2017-10-07T21:03:35.889Z,9.20
2017-10-07T21:06:03.694Z,8.47
2017-10-07T21:08:31.561Z,13.63
2017-10-07T21:10:59.372Z,5.00
2017-10-07T21:13:27.201Z,9.00
2017-10-07T21:15:55.048Z,11.07
2017-10-07T21:18:22.877Z,14.37
2017-10-07T21:20:50.681Z,12.90
2017-10-07T21:23:18.523Z,22.73
2017-10-07T21:25:46.340Z,11.07
2017-10-07T21:28:14.167Z,9.30
2017-10-07T21:30:41.973Z,10.10
2017-10-07T21:33:09.807Z,13.80
2017-10-07T21:35:37.624Z,15.03
2017-10-07T21:38:05.453Z,23.23
2017-10-07T21:40:33.261Z,12.00
2017-10-07T21:43:01.125Z,6.93
2017-10-07T21:45:28.971Z,5.60
2017-10-07T21:47:56.770Z,6.63
2017-10-07T21:50:24.571Z,4.90
2017-10-07T21:52:52.390Z,8.13
2017-10-07T21:55:20.198Z,6.97
2017-10-07T21:57:48.005Z,15.33
2017-10-07T22:00:15.861Z,19.47
2017-10-07T22:02:43.668Z,17.50
2017-10-07T22:05:11.475Z,30.70
2017-10-07T22:07:39.289Z,8.13
2017-10-07T22:10:07.112Z,37.57
2017-10-07T22:12:34.927Z,20.00
2017-10-07T22:15:02.743Z,23.13
2017-10-07T22:17:30.548Z,18.00
2017-10-07T22:19:58.385Z,16.70
2017-10-07T22:22:26.201Z,20.83
2017-10-07T22:24:54.015Z,15.07
2017-10-07T22:27:21.836Z,12.63
2017-10-07T22:29:49.647Z,19.60
2017-10-07T22:32:17.448Z,16.77
2017-10-07T22:34:45.257Z,26.40
2017-10-07T22:37:13.049Z,21.10
2017-10-07T22:39:40.864Z,29.33
2017-10-07T22:42:08.664Z,27.17
2017-10-07T22:44:36.480Z,19.10
2017-10-07T22:47:04.292Z,24.23
2017-10-07T22:49:32.165Z,30.07
2017-10-07T22:51:59.977Z,22.43
2017-10-07T22:54:27.797Z,22.80
2017-10-07T22:56:55.636Z,24.53
2017-10-07T22:59:23.457Z,22.43
2017-10-07T23:01:51.305Z,21.73
2017-10-07T23:04:19.117Z,14.07
2017-10-07T23:06:46.945Z,22.50
2017-10-07T23:09:14.761Z,18.23
2017-10-07T23:11:42.573Z,17.73
2017-10-07T23:14:10.409Z,17.10
2017-10-07T23:16:38.216Z,24.13
2017-10-07T23:19:06.047Z,17.50
2017-10-07T23:21:33.877Z,13.20
2017-10-07T23:24:01.680Z,15.60
2017-10-07T23:26:29.509Z,19.83
2017-10-07T23:29:04.107Z,18.37
2017-10-07T23:31:31.916Z,25.20
2017-10-07T23:33:59.726Z,21.90
2017-10-07T23:36:27.533Z,33.07
2017-10-07T23:38:55.348Z,22.20
2017-10-07T23:41:23.168Z,25.53
2017-10-07T23:43:50.993Z,25.47
2017-10-07T23:46:18.808Z,23.57
2017-10-07T23:48:46.623Z,28.43
2017-10-07T23:51:14.433Z,15.53
2017-10-07T23:53:42.274Z,12.10
2017-10-07T23:56:10.072Z,19.23
2017-10-07T23:58:37.908Z,11.27
